Terminal Aerodrome Forecast
Issued by NWS Blacksburg, VA

Home | Current Version | Previous Version | Text Only | Print | Product List | Glossary On
Versions: 1 2 3 4 5 6 7 8 9 10 11 12 13 14 15 16 17 18 19 20
000
FTUS41 KRNK 072320
TAFROA
TAF
KROA 072320Z 0800/0824 34005KT P6SM BKN250
     FM080500 00000KT P6SM BKN050
     FM081400 30008KT P6SM BKN200
     FM081800 30012G22KT P6SM SCT060=

USA.gov is the U.S. government's official web portal to all federal, state and local government web resources and services.